createdAt,value
2023-02-02T00:02:01.895Z,1.80
2023-02-02T00:04:41.119Z,1.50
2023-02-02T00:07:10.545Z,1.40
2023-02-02T00:09:44.144Z,2.00
2023-02-02T00:12:11.017Z,1.50
2023-02-02T00:14:44.066Z,2.00
2023-02-02T00:17:17.367Z,1.73
2023-02-02T00:19:51.078Z,2.07
2023-02-02T00:22:17.701Z,2.10
2023-02-02T00:24:51.096Z,1.60
2023-02-02T00:27:17.779Z,1.73
2023-02-02T00:29:44.898Z,1.80
2023-02-02T00:32:18.101Z,2.27
2023-02-02T00:34:44.740Z,1.77
2023-02-02T00:37:18.129Z,2.00
2023-02-02T00:39:44.742Z,1.93
2023-02-02T00:42:19.089Z,2.53
2023-02-02T00:45:04.392Z,2.20
2023-02-02T00:47:37.078Z,2.07
2023-02-02T00:50:04.489Z,2.00
2023-02-02T00:52:38.069Z,2.23
2023-02-02T00:55:12.087Z,2.10
2023-02-02T00:57:46.024Z,2.10
2023-02-02T01:00:15.938Z,2.10
2023-02-02T01:02:49.089Z,1.73
2023-02-02T01:05:23.395Z,1.60
2023-02-02T01:07:50.199Z,1.80
2023-02-02T01:10:27.064Z,3.03
2023-02-02T01:12:53.768Z,3.03
2023-02-02T01:15:27.100Z,2.47
2023-02-02T01:18:00.153Z,2.60
2023-02-02T01:20:33.070Z,3.17
2023-02-02T01:22:59.655Z,2.60
2023-02-02T01:25:34.083Z,2.77
2023-02-02T01:28:02.938Z,3.10
2023-02-02T01:30:36.137Z,3.20
2023-02-02T01:33:09.064Z,3.37
2023-02-02T01:35:36.009Z,2.93
2023-02-02T01:38:10.050Z,2.70
2023-02-02T01:40:37.280Z,4.00
2023-02-02T01:43:16.159Z,2.73
2023-02-02T01:45:43.151Z,3.47
2023-02-02T01:48:16.170Z,3.20
2023-02-02T01:50:43.827Z,3.20
2023-02-02T01:53:18.202Z,2.97
2023-02-02T01:55:45.031Z,3.30
2023-02-02T01:58:29.192Z,2.90
2023-02-02T02:01:02.140Z,3.63
2023-02-02T02:03:38.121Z,3.20
2023-02-02T02:06:09.144Z,3.30
2023-02-02T02:09:11.041Z,2.97
2023-02-02T02:11:37.868Z,3.50
2023-02-02T02:14:34.080Z,2.50
2023-02-02T02:17:18.852Z,2.90
2023-02-02T02:20:45.183Z,3.43
2023-02-02T02:23:48.994Z,2.93
2023-02-02T02:26:44.263Z,2.50
2023-02-02T02:29:54.084Z,2.90
2023-02-02T02:32:37.088Z,2.93
2023-02-02T02:35:19.203Z,3.15
2023-02-02T02:38:11.125Z,2.45
2023-02-02T02:40:50.134Z,2.90
2023-02-02T02:43:40.685Z,3.47
2023-02-02T02:46:16.098Z,2.67
2023-02-02T02:48:46.393Z,2.95
2023-02-02T02:51:55.075Z,2.92
2023-02-02T02:54:41.125Z,2.77
2023-02-02T02:57:26.478Z,3.70
2023-02-02T03:00:08.129Z,2.80
2023-02-02T03:02:56.166Z,3.60
2023-02-02T03:05:37.413Z,3.00
2023-02-02T03:08:40.118Z,3.03
2023-02-02T03:11:17.125Z,2.72
2023-02-02T03:13:51.135Z,2.83
2023-02-02T03:16:31.108Z,2.70
2023-02-02T03:18:58.221Z,3.42
2023-02-02T03:21:31.120Z,2.63
2023-02-02T03:23:57.728Z,3.67
2023-02-02T03:26:32.203Z,3.03
2023-02-02T03:28:58.903Z,3.10
2023-02-02T03:31:34.271Z,2.33
2023-02-02T03:34:07.234Z,2.58
2023-02-02T03:36:34.066Z,2.47
2023-02-02T03:39:00.749Z,2.55
2023-02-02T03:41:34.094Z,2.88
2023-02-02T03:44:00.729Z,2.58
2023-02-02T03:46:34.231Z,2.83
2023-02-02T03:49:00.930Z,3.03
2023-02-02T03:51:34.180Z,2.63
2023-02-02T03:54:00.942Z,2.65
2023-02-02T03:56:34.174Z,2.70
2023-02-02T03:59:07.165Z,2.60
2023-02-02T04:01:33.826Z,2.83
2023-02-02T04:04:07.155Z,2.40
2023-02-02T04:06:33.938Z,2.67
2023-02-02T04:09:07.179Z,2.58
2023-02-02T04:11:34.139Z,3.17
2023-02-02T04:14:07.228Z,2.45
2023-02-02T04:16:40.661Z,2.40
2023-02-02T04:19:14.321Z,2.70
2023-02-02T04:21:41.599Z,2.70
2023-02-02T04:24:25.169Z,2.70
2023-02-02T04:26:52.028Z,2.58
2023-02-02T04:29:25.191Z,2.13
2023-02-02T04:31:59.336Z,2.40
2023-02-02T04:34:32.240Z,2.67
2023-02-02T04:37:05.227Z,2.40
2023-02-02T04:39:31.815Z,2.10
2023-02-02T04:42:05.168Z,2.60
2023-02-02T04:44:31.757Z,2.20
2023-02-02T04:47:05.179Z,2.43
2023-02-02T04:49:31.951Z,2.23
2023-02-02T04:52:05.297Z,2.37
2023-02-02T04:54:39.152Z,2.60
2023-02-02T04:57:12.151Z,2.33
2023-02-02T04:59:41.927Z,2.20
2023-02-02T05:02:16.174Z,2.30
2023-02-02T05:04:42.812Z,1.90
2023-02-02T05:07:16.193Z,2.13
2023-02-02T05:09:49.199Z,2.10
2023-02-02T05:12:15.788Z,2.00
2023-02-02T05:14:49.174Z,1.63
2023-02-02T05:17:15.825Z,1.70
2023-02-02T05:19:49.149Z,1.90
2023-02-02T05:22:15.704Z,1.80
2023-02-02T05:24:49.242Z,1.60
2023-02-02T05:27:22.241Z,1.73
2023-02-02T05:29:55.187Z,1.80
2023-02-02T05:32:28.170Z,2.10
2023-02-02T05:35:01.185Z,1.70
2023-02-02T05:37:27.796Z,1.97
2023-02-02T05:40:01.167Z,2.20
2023-02-02T05:42:27.850Z,2.40
2023-02-02T05:45:02.582Z,2.70
2023-02-02T05:47:29.220Z,2.60
2023-02-02T05:50:03.463Z,2.70
2023-02-02T05:52:41.268Z,3.20
2023-02-02T05:55:09.806Z,3.70
2023-02-02T05:57:43.193Z,3.27
2023-02-02T06:00:17.182Z,3.80
2023-02-02T06:02:50.307Z,4.28
2023-02-02T06:05:23.536Z,4.27
2023-02-02T06:07:57.161Z,4.93
2023-02-02T06:10:23.864Z,4.73
2023-02-02T06:12:57.235Z,4.83
2023-02-02T06:15:44.340Z,5.03
2023-02-02T06:18:17.156Z,4.85
2023-02-02T06:20:50.253Z,5.50
2023-02-02T06:23:23.225Z,5.03
2023-02-02T06:25:56.192Z,5.00
2023-02-02T06:28:22.870Z,5.07
2023-02-02T06:30:56.357Z,4.93
2023-02-02T06:33:23.086Z,5.07
2023-02-02T06:35:56.266Z,5.00
2023-02-02T06:38:22.928Z,4.78
2023-02-02T06:40:56.447Z,4.80
2023-02-02T06:43:29.225Z,4.90
2023-02-02T06:46:04.368Z,3.87
2023-02-02T06:48:30.962Z,3.70
2023-02-02T06:51:06.235Z,3.13
2023-02-02T06:53:40.181Z,2.92
2023-02-02T06:56:16.203Z,3.08
2023-02-02T06:58:49.260Z,2.47
2023-02-02T07:01:22.264Z,2.50
2023-02-02T07:03:57.224Z,2.20
2023-02-02T07:06:33.213Z,1.55
2023-02-02T07:09:07.242Z,1.88
2023-02-02T07:11:42.809Z,1.80
2023-02-02T07:14:12.295Z,1.70
2023-02-02T07:16:52.211Z,1.57
2023-02-02T07:19:25.277Z,1.70
2023-02-02T07:21:51.906Z,1.98
2023-02-02T07:24:25.268Z,1.77
2023-02-02T07:26:51.883Z,1.70
2023-02-02T07:29:25.266Z,1.70
2023-02-02T07:31:58.412Z,1.60
2023-02-02T07:34:32.254Z,1.90
2023-02-02T07:37:05.231Z,1.80
2023-02-02T07:39:38.233Z,1.70
2023-02-02T07:42:12.240Z,1.60
2023-02-02T07:44:45.258Z,1.87
2023-02-02T07:47:11.950Z,1.48
2023-02-02T07:49:38.695Z,1.30
2023-02-02T07:52:12.298Z,1.43
2023-02-02T07:54:38.895Z,1.57
2023-02-02T07:57:12.358Z,1.80
2023-02-02T07:59:39.113Z,1.43
2023-02-02T08:02:13.300Z,1.38
2023-02-02T08:04:40.049Z,1.70
2023-02-02T08:07:15.042Z,1.60
2023-02-02T08:09:53.396Z,1.70
2023-02-02T08:12:21.463Z,1.60
2023-02-02T08:14:54.336Z,1.58
2023-02-02T08:17:27.479Z,2.00
2023-02-02T08:20:00.435Z,1.70
2023-02-02T08:22:27.280Z,1.80
2023-02-02T08:25:00.392Z,2.05
2023-02-02T08:27:29.480Z,1.97
2023-02-02T08:30:02.311Z,1.80
2023-02-02T08:32:38.334Z,1.87
2023-02-02T08:35:07.396Z,2.10
2023-02-02T08:37:40.315Z,2.00
2023-02-02T08:40:16.564Z,2.30
2023-02-02T08:42:50.287Z,2.40
2023-02-02T08:46:01.207Z,2.10
2023-02-02T08:48:16.252Z,2.10
2023-02-02T08:50:43.122Z,2.10
2023-02-02T08:53:18.889Z,2.27
2023-02-02T08:55:45.459Z,2.20
2023-02-02T08:58:18.299Z,2.27
2023-02-02T09:00:44.969Z,2.43
2023-02-02T09:03:18.323Z,2.40
2023-02-02T09:05:44.879Z,2.50
2023-02-02T09:08:11.609Z,1.98
2023-02-02T09:10:46.472Z,2.70
2023-02-02T09:13:19.689Z,2.40
2023-02-02T09:16:07.383Z,2.33
2023-02-02T09:18:40.261Z,2.20
2023-02-02T09:21:16.276Z,2.40
2023-02-02T09:23:51.254Z,2.40
2023-02-02T09:26:27.494Z,2.67
2023-02-02T09:29:03.038Z,2.80
2023-02-02T09:31:39.277Z,2.78
2023-02-02T09:34:09.071Z,2.50
2023-02-02T09:36:43.266Z,3.20
2023-02-02T09:39:19.662Z,3.47
2023-02-02T09:42:15.350Z,3.35
2023-02-02T09:45:13.364Z,4.10
2023-02-02T09:47:52.426Z,4.47
2023-02-02T09:50:31.851Z,4.25
2023-02-02T09:53:27.328Z,4.23
2023-02-02T09:55:58.969Z,4.00
2023-02-02T09:58:39.359Z,4.20
2023-02-02T10:01:23.249Z,4.17
2023-02-02T10:04:14.320Z,3.70
2023-02-02T10:06:48.430Z,3.63
2023-02-02T10:09:30.272Z,3.87
2023-02-02T10:12:00.733Z,4.33
2023-02-02T10:14:41.524Z,4.67
2023-02-02T10:17:43.301Z,5.20
2023-02-02T10:20:44.842Z,6.30
2023-02-02T10:23:34.510Z,6.33
2023-02-02T10:26:25.344Z,6.95
2023-02-02T10:29:17.450Z,6.03
2023-02-02T10:32:31.312Z,5.68
2023-02-02T10:35:17.202Z,6.22
2023-02-02T10:38:04.400Z,6.65
2023-02-02T10:40:31.136Z,5.72
2023-02-02T10:43:35.398Z,6.45
2023-02-02T10:46:04.899Z,5.57
2023-02-02T10:48:42.462Z,6.15
2023-02-02T10:51:27.339Z,5.68
2023-02-02T10:53:58.194Z,6.78
2023-02-02T10:56:40.298Z,5.50
2023-02-02T10:59:24.357Z,5.72
2023-02-02T11:01:51.352Z,5.65
2023-02-02T11:04:45.409Z,5.70
2023-02-02T11:07:20.581Z,5.20
2023-02-02T11:09:54.417Z,6.10
2023-02-02T11:12:37.080Z,5.45
2023-02-02T11:15:17.489Z,5.90
2023-02-02T11:17:57.293Z,6.53
2023-02-02T11:20:42.095Z,5.38
2023-02-02T11:23:24.353Z,5.38
2023-02-02T11:26:01.870Z,5.63
2023-02-02T11:28:40.435Z,5.07
2023-02-02T11:31:07.338Z,6.00
2023-02-02T11:33:43.409Z,5.53
2023-02-02T11:36:22.076Z,5.70
2023-02-02T11:38:55.304Z,5.10
2023-02-02T11:41:21.999Z,4.90
2023-02-02T11:44:01.350Z,5.10
2023-02-02T11:46:41.428Z,5.20
2023-02-02T11:49:27.514Z,4.65
2023-02-02T11:52:09.673Z,5.28
2023-02-02T11:54:45.426Z,5.28
2023-02-02T11:57:18.346Z,4.90
2023-02-02T11:59:53.473Z,5.00
2023-02-02T12:02:25.786Z,4.30
2023-02-02T12:05:23.427Z,5.07
2023-02-02T12:07:50.734Z,5.03
2023-02-02T12:10:36.621Z,5.28
2023-02-02T12:13:59.513Z,4.93
2023-02-02T12:16:48.060Z,4.82
2023-02-02T12:19:46.225Z,5.13
2023-02-02T12:22:48.608Z,5.40
2023-02-02T12:25:22.625Z,5.57
2023-02-02T12:28:06.451Z,5.07
2023-02-02T12:30:49.080Z,4.97
2023-02-02T12:33:34.246Z,5.13
2023-02-02T12:36:31.360Z,5.07
2023-02-02T12:39:35.202Z,5.57
2023-02-02T12:42:01.870Z,4.97
2023-02-02T12:44:50.485Z,5.28
2023-02-02T12:47:53.358Z,5.43
2023-02-02T12:50:38.057Z,4.93
2023-02-02T12:53:43.474Z,5.45
2023-02-02T12:56:24.865Z,5.72
2023-02-02T12:59:32.350Z,6.10
2023-02-02T13:02:17.560Z,5.18
2023-02-02T13:05:05.409Z,6.13
2023-02-02T13:07:52.753Z,6.10
2023-02-02T13:10:44.598Z,6.20
2023-02-02T13:13:26.512Z,6.35
2023-02-02T13:16:04.473Z,5.90
2023-02-02T13:19:07.407Z,5.78
2023-02-02T13:21:36.777Z,6.47
2023-02-02T13:24:13.569Z,6.68
2023-02-02T13:26:46.039Z,7.18
2023-02-02T13:29:48.079Z,6.55
2023-02-02T13:32:25.391Z,6.45
2023-02-02T13:35:10.859Z,6.75
2023-02-02T13:37:53.466Z,7.55
2023-02-02T13:40:41.962Z,7.15
2023-02-02T13:43:18.679Z,7.85
2023-02-02T13:46:22.650Z,7.90
2023-02-02T13:49:17.437Z,8.02
2023-02-02T13:52:29.077Z,8.23
2023-02-02T13:55:30.474Z,8.57
2023-02-02T13:58:22.309Z,8.15
2023-02-02T14:01:00.414Z,9.10
2023-02-02T14:03:38.946Z,8.73
2023-02-02T14:06:26.451Z,9.60
2023-02-02T14:08:57.980Z,10.30
2023-02-02T14:11:45.413Z,10.43
2023-02-02T14:14:39.479Z,9.73
2023-02-02T14:17:19.655Z,9.48
2023-02-02T14:20:00.515Z,8.70
2023-02-02T14:22:55.487Z,7.70
2023-02-02T14:25:34.281Z,8.50
2023-02-02T14:28:16.529Z,7.97
2023-02-02T14:30:50.598Z,7.50
2023-02-02T14:33:45.556Z,7.63
2023-02-02T14:36:21.483Z,7.18
2023-02-02T14:38:53.647Z,8.07
2023-02-02T14:42:01.464Z,8.32
2023-02-02T14:44:35.523Z,7.18
2023-02-02T14:47:05.502Z,8.18
2023-02-02T14:49:42.451Z,7.50
2023-02-02T14:52:28.449Z,7.70
2023-02-02T14:55:02.421Z,7.10
2023-02-02T14:57:36.425Z,7.72
2023-02-02T15:00:10.498Z,7.60
2023-02-02T15:02:38.294Z,7.25
2023-02-02T15:05:37.440Z,7.75
2023-02-02T15:08:23.968Z,6.80
2023-02-02T15:11:00.505Z,7.07
2023-02-02T15:13:44.550Z,7.97
2023-02-02T15:16:29.548Z,7.90
2023-02-02T15:19:25.464Z,7.35
2023-02-02T15:22:03.542Z,6.80
2023-02-02T15:24:40.246Z,6.90
2023-02-02T15:27:18.469Z,7.13
2023-02-02T15:29:54.488Z,7.53
2023-02-02T15:32:28.232Z,7.47
2023-02-02T15:35:08.569Z,7.00
2023-02-02T15:37:41.827Z,7.70
2023-02-02T15:40:23.536Z,7.63
2023-02-02T15:42:55.107Z,6.93
2023-02-02T15:45:54.425Z,7.65
2023-02-02T15:48:30.304Z,7.82
2023-02-02T15:51:11.777Z,7.25
2023-02-02T15:53:38.494Z,7.85
2023-02-02T15:56:29.518Z,7.25
2023-02-02T15:59:07.474Z,6.80
2023-02-02T16:01:55.510Z,7.43
2023-02-02T16:04:35.520Z,7.00
2023-02-02T16:07:10.510Z,7.20
2023-02-02T16:09:45.476Z,6.70
2023-02-02T16:12:30.552Z,6.47
2023-02-02T16:15:04.541Z,5.85
2023-02-02T16:17:44.479Z,5.82
2023-02-02T16:20:23.623Z,6.45
2023-02-02T16:22:57.455Z,6.22
2023-02-02T16:25:24.940Z,6.40
2023-02-02T16:28:00.679Z,7.00
2023-02-02T16:30:39.824Z,6.63
2023-02-02T16:33:34.454Z,8.43
2023-02-02T16:36:12.673Z,7.97
2023-02-02T16:38:39.618Z,7.25
2023-02-02T16:41:18.478Z,5.80
2023-02-02T16:43:45.183Z,6.90
2023-02-02T16:46:21.502Z,6.30
2023-02-02T16:49:00.476Z,6.10
2023-02-02T16:51:35.460Z,6.32
2023-02-02T16:54:08.186Z,6.20
2023-02-02T16:56:46.425Z,7.50
2023-02-02T16:59:33.451Z,7.57
2023-02-02T17:02:34.551Z,6.78
2023-02-02T17:05:22.628Z,7.00
2023-02-02T17:08:00.454Z,7.60
2023-02-02T17:10:48.504Z,8.57
2023-02-02T17:13:43.444Z,8.65
2023-02-02T17:16:36.503Z,8.35
2023-02-02T17:19:09.573Z,8.90
2023-02-02T17:21:36.183Z,8.38
2023-02-02T17:24:09.509Z,8.18
2023-02-02T17:26:36.682Z,9.07
2023-02-02T17:29:11.555Z,9.35
2023-02-02T17:31:38.315Z,8.48
2023-02-02T17:34:18.491Z,8.95
2023-02-02T17:36:45.278Z,8.88
2023-02-02T17:39:18.532Z,7.95
2023-02-02T17:41:54.507Z,7.03
2023-02-02T17:44:27.623Z,7.47
2023-02-02T17:46:54.255Z,7.05
2023-02-02T17:49:27.665Z,7.70
2023-02-02T17:52:00.538Z,7.20
2023-02-02T17:54:27.097Z,9.30
2023-02-02T17:57:00.519Z,8.30
2023-02-02T17:59:27.114Z,8.00
2023-02-02T18:02:01.450Z,8.10
2023-02-02T18:04:28.471Z,7.70
2023-02-02T18:07:01.557Z,7.60
2023-02-02T18:09:33.848Z,7.32
2023-02-02T18:12:07.552Z,7.32
2023-02-02T18:14:34.264Z,7.40
2023-02-02T18:17:14.584Z,8.32
2023-02-02T18:19:44.986Z,8.07
2023-02-02T18:22:20.615Z,7.78
2023-02-02T18:24:48.405Z,8.20
2023-02-02T18:27:22.602Z,8.32
2023-02-02T18:29:55.548Z,8.68
2023-02-02T18:32:22.245Z,8.82
2023-02-02T18:34:57.565Z,8.40
2023-02-02T18:37:32.583Z,9.65
2023-02-02T18:40:06.791Z,9.00
2023-02-02T18:42:34.511Z,8.60
2023-02-02T18:45:08.704Z,9.35
2023-02-02T18:47:35.333Z,8.85
2023-02-02T18:50:08.597Z,8.90
2023-02-02T18:52:35.278Z,8.05
2023-02-02T18:55:08.887Z,8.52
2023-02-02T18:57:35.502Z,9.27
2023-02-02T19:00:09.578Z,8.50
2023-02-02T19:02:36.233Z,9.60
2023-02-02T19:05:28.750Z,9.18
2023-02-02T19:07:55.599Z,9.00
2023-02-02T19:10:24.144Z,8.68
2023-02-02T19:13:02.568Z,8.90
2023-02-02T19:15:39.512Z,9.30
2023-02-02T19:18:27.592Z,9.43
2023-02-02T19:21:00.573Z,9.18
2023-02-02T19:23:38.565Z,8.63
2023-02-02T19:26:30.734Z,9.88
2023-02-02T19:29:12.670Z,9.50
2023-02-02T19:31:40.205Z,9.32
2023-02-02T19:34:18.531Z,10.27
2023-02-02T19:36:46.937Z,10.45
2023-02-02T19:39:25.518Z,10.88
2023-02-02T19:41:56.864Z,11.73
2023-02-02T19:44:25.382Z,11.05
2023-02-02T19:46:59.616Z,10.65
2023-02-02T19:49:34.419Z,12.18
2023-02-02T19:52:10.585Z,11.63
2023-02-02T19:54:39.449Z,12.27
2023-02-02T19:57:43.557Z,11.82
2023-02-02T20:00:31.604Z,11.98
2023-02-02T20:03:11.679Z,12.80
2023-02-02T20:05:53.558Z,12.18
2023-02-02T20:08:47.612Z,13.23
2023-02-02T20:11:23.859Z,14.20
2023-02-02T20:13:57.572Z,11.25
2023-02-02T20:16:47.623Z,12.48
2023-02-02T20:19:29.155Z,12.30
2023-02-02T20:22:03.644Z,12.52
2023-02-02T20:24:42.315Z,11.35
2023-02-02T20:27:24.750Z,11.45
2023-02-02T20:29:53.617Z,11.88
2023-02-02T20:32:45.562Z,11.82
2023-02-02T20:35:35.617Z,10.88
2023-02-02T20:38:19.640Z,11.43
2023-02-02T20:40:52.646Z,10.65
2023-02-02T20:43:25.541Z,10.52
2023-02-02T20:45:58.697Z,9.70
2023-02-02T20:48:25.744Z,11.85
2023-02-02T20:50:58.594Z,10.38
2023-02-02T20:53:25.222Z,11.13
2023-02-02T20:56:03.622Z,10.23
2023-02-02T20:58:36.621Z,9.60
2023-02-02T21:01:11.696Z,10.75
2023-02-02T21:03:38.325Z,11.40
2023-02-02T21:06:11.638Z,9.95
2023-02-02T21:08:38.521Z,10.82
2023-02-02T21:11:11.574Z,10.85
2023-02-02T21:13:44.664Z,11.00
2023-02-02T21:16:17.678Z,10.30
2023-02-02T21:18:51.330Z,10.93
2023-02-02T21:21:25.701Z,11.45
2023-02-02T21:23:58.583Z,11.15
2023-02-02T21:26:30.695Z,10.35
2023-02-02T21:29:04.693Z,10.90
2023-02-02T21:31:35.319Z,9.57
2023-02-02T21:34:09.645Z,9.18
2023-02-02T21:36:39.213Z,8.88
2023-02-02T21:39:33.660Z,10.00
2023-02-02T21:42:09.433Z,9.35
2023-02-02T21:44:49.680Z,9.93
2023-02-02T21:47:48.618Z,9.70
2023-02-02T21:50:25.014Z,9.05
2023-02-02T21:52:53.828Z,8.93
2023-02-02T21:55:43.645Z,8.65
2023-02-02T21:58:28.665Z,9.82
2023-02-02T22:01:05.718Z,8.77
2023-02-02T22:03:34.937Z,8.50
2023-02-02T22:06:34.643Z,8.43
2023-02-02T22:09:26.247Z,8.35
2023-02-02T22:12:07.645Z,8.68
2023-02-02T22:14:40.170Z,9.02
2023-02-02T22:17:26.667Z,9.02
2023-02-02T22:20:03.019Z,8.75
2023-02-02T22:22:41.684Z,8.48
2023-02-02T22:25:16.974Z,9.02
2023-02-02T22:28:04.696Z,8.00
2023-02-02T22:30:40.090Z,8.02
2023-02-02T22:33:15.606Z,8.05
2023-02-02T22:35:43.230Z,8.18
2023-02-02T22:38:17.618Z,9.02
2023-02-02T22:40:45.240Z,7.63
2023-02-02T22:43:19.700Z,7.50
2023-02-02T22:45:52.992Z,8.30
2023-02-02T22:48:26.623Z,7.18
2023-02-02T22:50:53.290Z,8.63
2023-02-02T22:53:20.083Z,8.15
2023-02-02T22:55:53.787Z,7.72
2023-02-02T22:58:20.461Z,7.28
2023-02-02T23:00:53.654Z,9.40
2023-02-02T23:03:20.501Z,8.45
2023-02-02T23:05:53.663Z,8.95
2023-02-02T23:08:20.304Z,8.98
2023-02-02T23:10:47.569Z,8.48
2023-02-02T23:13:20.735Z,8.90
2023-02-02T23:15:47.484Z,9.25
2023-02-02T23:18:27.640Z,8.77
2023-02-02T23:21:00.698Z,8.35
2023-02-02T23:23:33.642Z,9.65
2023-02-02T23:26:00.245Z,9.85
2023-02-02T23:28:33.655Z,9.13
2023-02-02T23:31:00.396Z,9.00
2023-02-02T23:33:33.675Z,8.77
2023-02-02T23:36:00.443Z,9.38
2023-02-02T23:38:33.643Z,9.02
2023-02-02T23:41:00.565Z,9.32
2023-02-02T23:43:33.629Z,9.20
2023-02-02T23:46:00.587Z,8.82
2023-02-02T23:48:33.708Z,8.95
2023-02-02T23:51:06.796Z,8.68
2023-02-02T23:53:33.594Z,9.00
2023-02-02T23:56:06.717Z,8.68
2023-02-02T23:58:33.311Z,8.13
